createdAt,value
2024-04-10T05:00:42.856Z,1014.60
2024-04-10T05:01:42.747Z,1014.55
2024-04-10T05:02:42.967Z,1014.49
2024-04-10T05:03:42.880Z,1014.52
2024-04-10T05:04:42.791Z,1014.57
2024-04-10T05:05:42.787Z,1014.55
2024-04-10T05:06:42.696Z,1014.59
2024-04-10T05:07:42.697Z,1014.56
2024-04-10T05:08:42.678Z,1014.62
2024-04-10T05:09:42.681Z,1014.61
2024-04-10T05:10:42.666Z,1014.61
2024-04-10T05:11:47.771Z,1014.60
2024-04-10T05:12:42.856Z,1014.63
2024-04-10T05:13:42.616Z,1014.71
2024-04-10T05:14:42.634Z,1014.60
2024-04-10T05:15:42.655Z,1014.70
2024-04-10T05:16:42.603Z,1014.59
2024-04-10T05:17:42.788Z,1014.59
2024-04-10T05:18:42.569Z,1014.63
2024-04-10T05:19:42.546Z,1014.67
2024-04-10T05:20:42.681Z,1014.67
2024-04-10T05:21:42.536Z,1014.71
2024-04-10T05:22:47.554Z,1014.76
2024-04-10T05:23:42.559Z,1014.81
2024-04-10T05:24:42.489Z,1014.78
2024-04-10T05:25:42.515Z,1014.79
2024-04-10T05:26:42.525Z,1014.77
2024-04-10T05:27:42.470Z,1014.77
2024-04-10T05:28:42.446Z,1014.86
2024-04-10T05:29:42.512Z,1014.77
2024-04-10T05:30:42.423Z,1014.83
2024-04-10T05:31:42.420Z,1014.97
2024-04-10T05:32:42.932Z,1014.99
2024-04-10T05:33:47.619Z,1015.04
2024-04-10T05:34:42.395Z,1015.08
2024-04-10T05:35:42.376Z,1015.04
2024-04-10T05:36:42.374Z,1015.03
2024-04-10T05:37:42.392Z,1015.18
2024-04-10T05:38:42.392Z,1015.13
2024-04-10T05:39:42.341Z,1015.12
2024-04-10T05:40:42.348Z,1015.17
2024-04-10T05:41:42.440Z,1015.16
2024-04-10T05:42:42.301Z,1015.17
2024-04-10T05:43:42.281Z,1015.09
2024-04-10T05:44:47.290Z,1015.08
2024-04-10T05:45:42.256Z,1015.16
2024-04-10T05:46:42.292Z,1015.21
2024-04-10T05:47:42.542Z,1015.27
2024-04-10T05:48:42.474Z,1015.26
2024-04-10T05:49:42.212Z,1015.35
2024-04-10T05:50:42.253Z,1015.36
2024-04-10T05:51:42.189Z,1015.32
2024-04-10T05:52:42.294Z,1015.26
2024-04-10T05:53:42.362Z,1015.28
2024-04-10T05:54:42.162Z,1015.24
2024-04-10T05:55:47.164Z,1015.29
2024-04-10T05:56:42.205Z,1015.32
2024-04-10T05:57:42.121Z,1015.30
2024-04-10T05:58:42.148Z,1015.33
2024-04-10T05:59:42.130Z,1015.37
2024-04-10T06:00:42.115Z,1015.32
2024-04-10T06:01:42.151Z,1015.37
2024-04-10T06:02:42.274Z,1015.30
2024-04-10T06:03:42.147Z,1015.37
2024-04-10T06:04:42.096Z,1015.35
2024-04-10T06:05:42.101Z,1015.36
2024-04-10T06:06:47.068Z,1015.36
2024-04-10T06:07:42.011Z,1015.40
2024-04-10T06:08:42.340Z,1015.38
2024-04-10T06:09:41.995Z,1015.36
2024-04-10T06:10:42.007Z,1015.32
2024-04-10T06:11:42.062Z,1015.35
2024-04-10T06:12:42.012Z,1015.37
2024-04-10T06:13:41.961Z,1015.35
2024-04-10T06:14:42.000Z,1015.35
2024-04-10T06:15:42.024Z,1015.36
2024-04-10T06:16:42.061Z,1015.38
2024-04-10T06:17:47.054Z,1015.40
2024-04-10T06:18:41.899Z,1015.35
2024-04-10T06:19:41.884Z,1015.43
2024-04-10T06:20:41.910Z,1015.34
2024-04-10T06:21:41.855Z,1015.36
2024-04-10T06:22:41.857Z,1015.33
2024-04-10T06:23:41.869Z,1015.33
2024-04-10T06:24:41.818Z,1015.29
2024-04-10T06:25:41.812Z,1015.32
2024-04-10T06:26:42.041Z,1015.32
2024-04-10T06:27:41.787Z,1015.40
2024-04-10T06:28:46.827Z,1015.38
2024-04-10T06:29:41.818Z,1015.43
2024-04-10T06:30:41.753Z,1015.40
2024-04-10T06:31:41.791Z,1015.48
2024-04-10T06:32:41.878Z,1015.52
2024-04-10T06:33:41.827Z,1015.45
2024-04-10T06:34:41.719Z,1015.42
2024-04-10T06:35:41.732Z,1015.46
2024-04-10T06:36:41.732Z,1015.46
2024-04-10T06:37:41.680Z,1015.50
2024-04-10T06:38:41.734Z,1015.52
2024-04-10T06:39:46.684Z,1015.49
2024-04-10T06:40:41.675Z,1015.48
2024-04-10T06:41:41.644Z,1015.53
2024-04-10T06:42:41.631Z,1015.53
2024-04-10T06:43:41.648Z,1015.53
2024-04-10T06:44:41.650Z,1015.57
2024-04-10T06:45:41.583Z,1015.56
2024-04-10T06:46:41.583Z,1015.56
2024-04-10T06:47:42.181Z,1015.57
2024-04-10T06:48:42.061Z,1015.57
2024-04-10T06:49:41.616Z,1015.56
2024-04-10T06:50:46.594Z,1015.50
2024-04-10T06:51:41.524Z,1015.58
2024-04-10T06:52:41.574Z,1015.58
2024-04-10T06:53:41.543Z,1015.63
2024-04-10T06:54:41.482Z,1015.58
2024-04-10T06:55:41.482Z,1015.62
2024-04-10T06:56:41.599Z,1015.65
2024-04-10T06:57:41.501Z,1015.60
2024-04-10T06:58:41.496Z,1015.74
2024-04-10T06:59:41.587Z,1015.66
2024-04-10T07:00:41.553Z,1015.66
2024-04-10T07:01:46.449Z,1015.70
2024-04-10T07:02:41.647Z,1015.64
2024-04-10T07:03:41.756Z,1015.71
2024-04-10T07:04:41.414Z,1015.76
2024-04-10T07:05:41.396Z,1015.72
2024-04-10T07:06:41.348Z,1015.79
2024-04-10T07:07:41.340Z,1015.85
2024-04-10T07:08:44.298Z,1015.79
2024-04-10T07:09:41.317Z,1015.85
2024-04-10T07:10:41.401Z,1015.86
2024-04-10T07:11:41.490Z,1015.89
2024-04-10T07:12:46.319Z,1015.86
2024-04-10T07:13:41.299Z,1015.87
2024-04-10T07:14:41.380Z,1015.85
2024-04-10T07:15:41.284Z,1015.91
2024-04-10T07:16:41.297Z,1015.90
2024-04-10T07:17:41.379Z,1015.88
2024-04-10T07:18:42.007Z,1015.90
2024-04-10T07:19:41.228Z,1015.96
2024-04-10T07:20:41.281Z,1015.95
2024-04-10T07:21:41.186Z,1015.95
2024-04-10T07:22:41.186Z,1015.91
2024-04-10T07:23:46.203Z,1015.88
2024-04-10T07:24:41.164Z,1015.84
2024-04-10T07:25:41.164Z,1015.78
2024-04-10T07:26:41.229Z,1015.84
2024-04-10T07:27:41.124Z,1015.88
2024-04-10T07:28:41.661Z,1015.92
2024-04-10T07:29:41.274Z,1015.86
2024-04-10T07:30:41.095Z,1015.84
2024-04-10T07:31:41.090Z,1015.86
2024-04-10T07:32:41.272Z,1015.89
2024-04-10T07:33:41.164Z,1015.86
2024-04-10T07:34:46.079Z,1015.92
2024-04-10T07:35:41.086Z,1015.94
2024-04-10T07:36:43.402Z,1016.07
2024-04-10T07:37:41.019Z,1015.99
2024-04-10T07:38:41.052Z,1016.06
2024-04-10T07:39:41.007Z,1016.18
2024-04-10T07:40:40.975Z,1016.11
2024-04-10T07:41:41.019Z,1016.13
2024-04-10T07:42:42.022Z,1016.10
2024-04-10T07:43:40.965Z,1016.12
2024-04-10T07:44:43.746Z,1016.15
2024-04-10T07:45:45.933Z,1016.16
2024-04-10T07:46:40.916Z,1016.10
2024-04-10T07:47:41.050Z,1016.09
2024-04-10T07:48:43.772Z,1016.12
2024-04-10T07:49:40.933Z,1016.25
2024-04-10T07:50:40.984Z,1016.26
2024-04-10T07:51:40.892Z,1016.24
2024-04-10T07:52:40.835Z,1016.27
2024-04-10T07:53:40.886Z,1016.30
2024-04-10T07:54:40.825Z,1016.28
2024-04-10T07:55:43.113Z,1016.25
2024-04-10T07:56:45.852Z,1016.35
2024-04-10T07:57:40.792Z,1016.31
2024-04-10T07:58:40.786Z,1016.31
2024-04-10T07:59:40.798Z,1016.25
2024-04-10T08:00:40.775Z,1016.34
2024-04-10T08:01:40.752Z,1016.22
2024-04-10T08:02:40.878Z,1016.24
2024-04-10T08:03:40.920Z,1016.29
2024-04-10T08:04:40.748Z,1016.26
2024-04-10T08:05:40.742Z,1016.30
2024-04-10T08:06:40.688Z,1016.33
2024-04-10T08:07:45.698Z,1016.36
2024-04-10T08:08:40.683Z,1016.37
2024-04-10T08:09:40.644Z,1016.54
2024-04-10T08:10:40.668Z,1016.55
2024-04-10T08:11:40.821Z,1016.50
2024-04-10T08:12:40.613Z,1016.47
2024-04-10T08:13:40.609Z,1016.44
2024-04-10T08:14:40.614Z,1016.54
2024-04-10T08:15:40.580Z,1016.53
2024-04-10T08:16:40.716Z,1016.58
2024-04-10T08:17:40.607Z,1016.59
2024-04-10T08:18:45.672Z,1016.72
2024-04-10T08:19:40.546Z,1016.64
2024-04-10T08:20:40.552Z,1016.61
2024-04-10T08:21:40.520Z,1016.61
2024-04-10T08:22:40.523Z,1016.64
2024-04-10T08:23:40.786Z,1016.59
2024-04-10T08:24:40.490Z,1016.59
2024-04-10T08:25:40.492Z,1016.73
2024-04-10T08:26:40.497Z,1016.73
2024-04-10T08:27:40.474Z,1016.78
2024-04-10T08:28:40.433Z,1016.78
2024-04-10T08:29:45.481Z,1016.88
2024-04-10T08:30:40.411Z,1016.83
2024-04-10T08:31:40.416Z,1016.97
2024-04-10T08:32:40.818Z,1016.93
2024-04-10T08:33:40.492Z,1016.87
2024-04-10T08:34:40.753Z,1016.87
2024-04-10T08:35:40.352Z,1016.85
2024-04-10T08:36:40.367Z,1016.93
2024-04-10T08:37:41.057Z,1016.88
2024-04-10T08:38:40.385Z,1016.87
2024-04-10T08:39:40.327Z,1016.87
2024-04-10T08:40:45.361Z,1016.87
2024-04-10T08:41:40.288Z,1016.95
2024-04-10T08:42:40.317Z,1017.08
2024-04-10T08:43:40.297Z,1017.06
2024-04-10T08:44:40.273Z,1017.11
2024-04-10T08:45:40.242Z,1017.07
2024-04-10T08:46:40.248Z,1017.12
2024-04-10T08:47:40.520Z,1017.14
2024-04-10T08:48:40.444Z,1017.26
2024-04-10T08:49:40.195Z,1017.12
2024-04-10T08:50:40.212Z,1017.16
2024-04-10T08:51:45.330Z,1017.19
2024-04-10T08:52:40.183Z,1017.11
2024-04-10T08:53:40.150Z,1017.15
2024-04-10T08:54:40.163Z,1017.23
2024-04-10T08:55:46.186Z,1017.19
2024-04-10T08:56:41.162Z,1017.20
2024-04-10T08:57:40.279Z,1017.24
2024-04-10T08:58:40.095Z,1017.16
2024-04-10T08:59:40.109Z,1017.17
2024-04-10T09:00:40.155Z,1017.24
2024-04-10T09:01:40.252Z,1017.22
2024-04-10T09:02:45.113Z,1017.16
2024-04-10T09:03:40.473Z,1017.23
2024-04-10T09:04:40.233Z,1017.24
2024-04-10T09:05:40.025Z,1017.20
2024-04-10T09:06:40.853Z,1017.28
2024-04-10T09:07:39.998Z,1017.25
2024-04-10T09:08:40.008Z,1017.22
2024-04-10T09:09:40.069Z,1017.22
2024-04-10T09:10:39.966Z,1017.17
2024-04-10T09:11:40.655Z,1017.19
2024-04-10T09:12:39.942Z,1017.13
2024-04-10T09:13:44.963Z,1017.24
2024-04-10T09:14:39.912Z,1017.21
2024-04-10T09:15:39.921Z,1017.21
2024-04-10T09:16:40.004Z,1017.15
2024-04-10T09:17:39.906Z,1017.23
2024-04-10T09:18:39.886Z,1017.18
2024-04-10T09:19:39.926Z,1017.16
2024-04-10T09:20:39.872Z,1017.25
2024-04-10T09:21:39.858Z,1017.18
2024-04-10T09:22:39.899Z,1017.16
2024-04-10T09:23:40.088Z,1017.29
2024-04-10T09:24:44.828Z,1017.26
2024-04-10T09:25:39.818Z,1017.32
2024-04-10T09:26:39.993Z,1017.39
2024-04-10T09:27:39.799Z,1017.33
2024-04-10T09:28:39.763Z,1017.34
2024-04-10T09:29:39.890Z,1017.39
2024-04-10T09:30:39.735Z,1017.33
2024-04-10T09:31:39.748Z,1017.38
2024-04-10T09:32:40.027Z,1017.36
2024-04-10T09:33:39.870Z,1017.31
2024-04-10T09:34:40.129Z,1017.39
2024-04-10T09:35:44.741Z,1017.49
2024-04-10T09:36:39.731Z,1017.43
2024-04-10T09:37:39.732Z,1017.34
2024-04-10T09:38:39.779Z,1017.24
2024-04-10T09:39:39.659Z,1017.33
2024-04-10T09:40:39.650Z,1017.35
2024-04-10T09:41:39.728Z,1017.33
2024-04-10T09:42:39.675Z,1017.34
2024-04-10T09:43:39.600Z,1017.35
2024-04-10T09:44:39.670Z,1017.31
2024-04-10T09:45:39.588Z,1017.32
2024-04-10T09:46:44.634Z,1017.42
2024-04-10T09:47:39.648Z,1017.35
2024-04-10T09:48:39.716Z,1017.34
2024-04-10T09:49:39.622Z,1017.33
2024-04-10T09:50:39.600Z,1017.35
2024-04-10T09:51:39.534Z,1017.32
2024-04-10T09:52:39.494Z,1017.30
2024-04-10T09:53:39.531Z,1017.32
2024-04-10T09:54:40.427Z,1017.33
2024-04-10T09:55:39.494Z,1017.32
2024-04-10T09:56:39.486Z,1017.33
2024-04-10T09:57:44.466Z,1017.34
2024-04-10T09:58:39.425Z,1017.33
2024-04-10T09:59:39.836Z,1017.38
2024-04-10T10:00:39.443Z,1017.35
2024-04-10T10:01:39.406Z,1017.38
2024-04-10T10:02:39.539Z,1017.37
2024-04-10T10:03:39.632Z,1017.41
2024-04-10T10:04:39.454Z,1017.36
2024-04-10T10:06:39.376Z,1017.35
2024-04-10T10:07:39.327Z,1017.36
2024-04-10T10:08:44.409Z,1017.45
2024-04-10T10:09:39.320Z,1017.45
2024-04-10T10:10:39.379Z,1017.45
2024-04-10T10:11:39.377Z,1017.49
2024-04-10T10:12:39.279Z,1017.45
2024-04-10T10:13:39.274Z,1017.51
2024-04-10T10:14:39.454Z,1017.57
2024-04-10T10:15:39.265Z,1017.47
2024-04-10T10:16:39.426Z,1017.47
2024-04-10T10:17:49.803Z,1017.46
2024-04-10T10:18:39.363Z,1017.48
2024-04-10T10:19:44.252Z,1017.49
2024-04-10T10:20:39.196Z,1017.45
2024-04-10T10:21:39.246Z,1017.49
2024-04-10T10:22:39.175Z,1017.51
2024-04-10T10:23:39.212Z,1017.50
2024-04-10T10:24:39.147Z,1017.48
2024-04-10T10:25:39.130Z,1017.51
2024-04-10T10:26:39.167Z,1017.50
2024-04-10T10:27:39.175Z,1017.52
2024-04-10T10:28:40.015Z,1017.58
2024-04-10T10:29:39.153Z,1017.44
2024-04-10T10:30:46.365Z,1017.53
2024-04-10T10:31:39.062Z,1017.61
2024-04-10T10:32:39.282Z,1017.64
2024-04-10T10:33:39.232Z,1017.54
2024-04-10T10:34:39.271Z,1017.57
2024-04-10T10:35:39.120Z,1017.61
2024-04-10T10:36:39.009Z,1017.54
2024-04-10T10:37:39.008Z,1017.56
2024-04-10T10:38:39.072Z,1017.61
2024-04-10T10:39:38.994Z,1017.57
2024-04-10T10:40:38.983Z,1017.50
2024-04-10T10:41:44.524Z,1017.52
2024-04-10T10:42:38.966Z,1017.50
2024-04-10T10:43:38.932Z,1017.49
2024-04-10T10:44:38.984Z,1017.51
2024-04-10T10:45:38.935Z,1017.47
2024-04-10T10:46:38.970Z,1017.53
2024-04-10T10:47:38.974Z,1017.51
2024-04-10T10:48:38.931Z,1017.54
2024-04-10T10:49:38.904Z,1017.49
2024-04-10T10:50:38.936Z,1017.49
2024-04-10T10:51:38.859Z,1017.42
2024-04-10T10:52:43.899Z,1017.41
2024-04-10T10:53:38.864Z,1017.54
2024-04-10T10:54:38.806Z,1017.43
2024-04-10T10:55:38.798Z,1017.46
2024-04-10T10:56:38.811Z,1017.34
2024-04-10T10:57:38.771Z,1017.30
2024-04-10T10:58:38.884Z,1017.33
2024-04-10T10:59:38.802Z,1017.29
2024-04-10T11:00:38.791Z,1017.28
2024-04-10T11:01:38.763Z,1017.35
2024-04-10T11:02:38.788Z,1017.32
2024-04-10T11:03:43.831Z,1017.35
2024-04-10T11:04:38.886Z,1017.32
2024-04-10T11:05:38.752Z,1017.32
2024-04-10T11:06:38.756Z,1017.36
2024-04-10T11:07:38.659Z,1017.29
2024-04-10T11:08:38.697Z,1017.38
2024-04-10T11:09:38.649Z,1017.37
2024-04-10T11:10:38.635Z,1017.37
2024-04-10T11:11:38.724Z,1017.41
2024-04-10T11:12:38.679Z,1017.37
2024-04-10T11:13:38.645Z,1017.40
2024-04-10T11:14:43.635Z,1017.29
2024-04-10T11:15:38.585Z,1017.33
2024-04-10T11:16:38.615Z,1017.29
2024-04-10T11:17:38.695Z,1017.31
2024-04-10T11:18:38.608Z,1017.32
2024-04-10T11:19:46.955Z,1017.28
2024-04-10T11:20:38.560Z,1017.26
2024-04-10T11:21:40.631Z,1017.30
2024-04-10T11:22:38.510Z,1017.37
2024-04-10T11:23:38.558Z,1017.34
2024-04-10T11:24:38.474Z,1017.26
2024-04-10T11:25:43.479Z,1017.20
2024-04-10T11:26:38.458Z,1017.28
2024-04-10T11:27:38.432Z,1017.25
2024-04-10T11:28:38.433Z,1017.28
2024-04-10T11:29:38.483Z,1017.31
2024-04-10T11:30:38.398Z,1017.38
2024-04-10T11:31:38.385Z,1017.42
2024-04-10T11:32:38.520Z,1017.48
2024-04-10T11:33:38.651Z,1017.53
2024-04-10T11:34:38.668Z,1017.52
2024-04-10T11:35:38.508Z,1017.47
2024-04-10T11:36:43.347Z,1017.58
2024-04-10T11:37:38.337Z,1017.53
2024-04-10T11:38:38.382Z,1017.51
2024-04-10T11:39:38.307Z,1017.36
2024-04-10T11:40:38.288Z,1017.29
2024-04-10T11:41:38.380Z,1017.30
2024-04-10T11:42:38.264Z,1017.26
2024-04-10T11:43:38.274Z,1017.26
2024-04-10T11:44:38.253Z,1017.21
2024-04-10T11:45:38.234Z,1017.23
2024-04-10T11:46:38.294Z,1017.16
2024-04-10T11:47:43.775Z,1017.23
2024-04-10T11:48:38.314Z,1017.21
2024-04-10T11:49:38.189Z,1017.22
2024-04-10T11:50:38.225Z,1017.13
2024-04-10T11:51:38.168Z,1017.15
2024-04-10T11:52:39.570Z,1017.15
2024-04-10T11:53:38.221Z,1017.12
2024-04-10T11:54:38.146Z,1017.15
2024-04-10T11:55:38.129Z,1017.11
2024-04-10T11:56:38.127Z,1017.14
2024-04-10T11:57:38.120Z,1017.23
2024-04-10T11:58:43.225Z,1017.20
2024-04-10T11:59:38.154Z,1017.13
2024-04-10T12:00:38.066Z,1017.19
2024-04-10T12:01:38.056Z,1017.19
2024-04-10T12:02:38.125Z,1017.22
2024-04-10T12:03:38.229Z,1017.27
2024-04-10T12:04:38.049Z,1017.22
2024-04-10T12:05:38.329Z,1017.30
2024-04-10T12:06:38.007Z,1017.26
2024-04-10T12:07:37.987Z,1017.20
2024-04-10T12:08:38.075Z,1017.26
2024-04-10T12:09:43.067Z,1017.28
2024-04-10T12:10:37.953Z,1017.24
2024-04-10T12:11:38.098Z,1017.21
2024-04-10T12:12:38.296Z,1017.34
2024-04-10T12:13:37.947Z,1017.26
2024-04-10T12:14:37.963Z,1017.24
2024-04-10T12:15:37.903Z,1017.26
2024-04-10T12:16:37.929Z,1017.24
2024-04-10T12:17:38.090Z,1017.27
2024-04-10T12:18:38.046Z,1017.25
2024-04-10T12:19:37.866Z,1017.23
2024-04-10T12:20:42.952Z,1017.19
2024-04-10T12:21:37.833Z,1017.18
2024-04-10T12:22:37.832Z,1017.21
2024-04-10T12:23:37.850Z,1017.19
2024-04-10T12:24:37.798Z,1017.24
2024-04-10T12:25:37.931Z,1017.22
2024-04-10T12:26:37.820Z,1017.29
2024-04-10T12:27:37.790Z,1017.27
2024-04-10T12:28:37.749Z,1017.32
2024-04-10T12:29:37.767Z,1017.37
2024-04-10T12:30:37.769Z,1017.46
2024-04-10T12:31:42.757Z,1017.41
2024-04-10T12:32:37.905Z,1017.47
2024-04-10T12:33:37.884Z,1017.39
2024-04-10T12:34:37.916Z,1017.32
2024-04-10T12:35:37.694Z,1017.39
2024-04-10T12:36:37.688Z,1017.41
2024-04-10T12:37:37.649Z,1017.30
2024-04-10T12:38:37.659Z,1017.37
2024-04-10T12:39:37.639Z,1017.35
2024-04-10T12:40:37.642Z,1017.41
2024-04-10T12:41:37.624Z,1017.33
2024-04-10T12:42:42.629Z,1017.38
2024-04-10T12:43:37.590Z,1017.31
2024-04-10T12:44:37.620Z,1017.28
2024-04-10T12:45:37.565Z,1017.27
2024-04-10T12:46:37.624Z,1017.28
2024-04-10T12:47:37.743Z,1017.21
2024-04-10T12:48:37.628Z,1017.18
2024-04-10T12:49:37.519Z,1017.07
2024-04-10T12:50:37.553Z,1017.08
2024-04-10T12:51:37.509Z,1017.11
2024-04-10T12:52:37.495Z,1017.17
2024-04-10T12:53:42.553Z,1017.18
2024-04-10T12:54:37.551Z,1017.20
2024-04-10T12:55:39.293Z,1017.21
2024-04-10T12:56:37.492Z,1017.11
2024-04-10T12:57:37.471Z,1017.04
2024-04-10T12:58:37.422Z,1017.20
2024-04-10T12:59:37.465Z,1017.18
2024-04-10T13:00:37.458Z,1017.10
2024-04-10T13:01:37.399Z,1017.16
2024-04-10T13:02:37.480Z,1017.10
2024-04-10T13:03:37.923Z,1017.10
2024-04-10T13:04:37.401Z,1017.11
2024-04-10T13:05:37.402Z,1017.18
2024-04-10T13:06:42.371Z,1017.11
2024-04-10T13:07:37.348Z,1017.10
2024-04-10T13:08:37.381Z,1017.18
2024-04-10T13:09:37.307Z,1017.18
2024-04-10T13:10:37.298Z,1017.16
2024-04-10T13:11:37.359Z,1017.07
2024-04-10T13:12:37.358Z,1017.04
2024-04-10T13:13:38.272Z,1017.08
2024-04-10T13:14:37.405Z,1016.99
2024-04-10T13:15:37.226Z,1017.01
2024-04-10T13:16:37.239Z,1017.02
2024-04-10T13:17:37.342Z,1017.05
2024-04-10T13:18:37.315Z,1017.00
2024-04-10T13:19:42.221Z,1017.01
2024-04-10T13:20:37.205Z,1017.06
2024-04-10T13:21:37.178Z,1017.08
2024-04-10T13:22:37.164Z,1017.09
2024-04-10T13:23:37.209Z,1017.04
2024-04-10T13:24:37.187Z,1017.07
2024-04-10T13:25:37.113Z,1017.11
2024-04-10T13:26:37.190Z,1017.09
2024-04-10T13:27:37.095Z,1017.07
2024-04-10T13:28:37.096Z,1017.14
2024-04-10T13:29:37.114Z,1017.10
2024-04-10T13:30:42.092Z,1017.10
2024-04-10T13:31:37.069Z,1017.20
2024-04-10T13:32:37.238Z,1017.22
2024-04-10T13:33:37.251Z,1017.28
2024-04-10T13:34:37.225Z,1017.14
2024-04-10T13:35:37.023Z,1017.20
2024-04-10T13:36:37.011Z,1017.26
2024-04-10T13:37:41.911Z,1017.32
2024-04-10T13:38:36.984Z,1017.26
2024-04-10T13:39:36.972Z,1017.26
2024-04-10T13:40:36.971Z,1017.26
2024-04-10T13:41:42.013Z,1017.25
2024-04-10T13:42:36.950Z,1017.26
2024-04-10T13:43:38.579Z,1017.28
2024-04-10T13:44:36.955Z,1017.27
2024-04-10T13:45:37.067Z,1017.28
2024-04-10T13:46:36.912Z,1017.24
2024-04-10T13:47:36.922Z,1017.26
2024-04-10T13:48:37.207Z,1017.29
2024-04-10T13:49:36.853Z,1017.32
2024-04-10T13:50:37.076Z,1017.28
2024-04-10T13:51:36.832Z,1017.25
2024-04-10T13:52:41.849Z,1017.32
2024-04-10T13:53:36.838Z,1017.29
2024-04-10T13:54:36.821Z,1017.26
2024-04-10T13:55:36.809Z,1017.31
2024-04-10T13:56:36.860Z,1017.37
2024-04-10T13:57:36.788Z,1017.37
2024-04-10T13:58:36.779Z,1017.34
2024-04-10T13:59:36.799Z,1017.33
2024-04-10T14:00:36.793Z,1017.37
2024-04-10T14:01:36.797Z,1017.38
2024-04-10T14:02:36.848Z,1017.33
2024-04-10T14:03:41.924Z,1017.31
2024-04-10T14:04:36.754Z,1017.33
2024-04-10T14:05:36.783Z,1017.31
2024-04-10T14:06:36.692Z,1017.36
2024-04-10T14:07:36.662Z,1017.34
2024-04-10T14:08:36.706Z,1017.34
2024-04-10T14:09:36.636Z,1017.33
2024-04-10T14:10:36.625Z,1017.30
2024-04-10T14:11:36.750Z,1017.33
2024-04-10T14:12:36.619Z,1017.32
2024-04-10T14:13:36.617Z,1017.40
2024-04-10T14:14:41.606Z,1017.36
2024-04-10T14:15:36.566Z,1017.41
2024-04-10T14:16:36.685Z,1017.45
2024-04-10T14:17:36.787Z,1017.39
2024-04-10T14:18:36.684Z,1017.42
2024-04-10T14:19:36.541Z,1017.42
2024-04-10T14:20:36.596Z,1017.47
2024-04-10T14:21:36.506Z,1017.43
2024-04-10T14:22:36.512Z,1017.39
2024-04-10T14:23:36.556Z,1017.35
2024-04-10T14:24:36.480Z,1017.41
2024-04-10T14:25:41.492Z,1017.26
2024-04-10T14:26:36.541Z,1017.34
2024-04-10T14:27:36.437Z,1017.36
2024-04-10T14:28:36.434Z,1017.37
2024-04-10T14:29:37.069Z,1017.33
2024-04-10T14:30:36.410Z,1017.33
2024-04-10T14:31:36.385Z,1017.38
2024-04-10T14:32:36.503Z,1017.40
2024-04-10T14:33:36.615Z,1017.37
2024-04-10T14:34:36.443Z,1017.42
2024-04-10T14:35:36.438Z,1017.35
2024-04-10T14:36:41.402Z,1017.26
2024-04-10T14:37:36.346Z,1017.37
2024-04-10T14:38:36.381Z,1017.37
2024-04-10T14:39:36.308Z,1017.44
2024-04-10T14:40:36.299Z,1017.42
2024-04-10T14:41:36.334Z,1017.38
2024-04-10T14:42:36.285Z,1017.40
2024-04-10T14:43:36.262Z,1017.43
2024-04-10T14:44:36.303Z,1017.41
2024-04-10T14:45:36.241Z,1017.39
2024-04-10T14:46:36.288Z,1017.36
2024-04-10T14:47:41.357Z,1017.32
2024-04-10T14:48:36.277Z,1017.32
2024-04-10T14:49:36.211Z,1017.35
2024-04-10T14:50:36.217Z,1017.38
2024-04-10T14:51:36.823Z,1017.36
2024-04-10T14:52:36.159Z,1017.31
2024-04-10T14:53:36.273Z,1017.38
2024-04-10T14:54:36.142Z,1017.38
2024-04-10T14:55:36.126Z,1017.36
2024-04-10T14:56:36.168Z,1017.30
2024-04-10T14:57:36.667Z,1017.33
2024-04-10T14:58:41.116Z,1017.32
2024-04-10T14:59:36.121Z,1017.30
2024-04-10T15:00:36.124Z,1017.36
2024-04-10T15:01:36.053Z,1017.36
2024-04-10T15:02:36.145Z,1017.36
2024-04-10T15:03:37.579Z,1017.40
2024-04-10T15:04:36.103Z,1017.31
2024-04-10T15:05:36.135Z,1017.38
2024-04-10T15:06:35.999Z,1017.37
2024-04-10T15:07:36.002Z,1017.41
2024-04-10T15:08:36.025Z,1017.36
2024-04-10T15:09:41.000Z,1017.36
2024-04-10T15:10:35.952Z,1017.36
2024-04-10T15:11:36.111Z,1017.49
2024-04-10T15:12:36.044Z,1017.40
2024-04-10T15:13:35.939Z,1017.47
2024-04-10T15:14:35.944Z,1017.43
2024-04-10T15:15:35.902Z,1017.47
2024-04-10T15:16:36.197Z,1017.46
2024-04-10T15:17:35.985Z,1017.41
2024-04-10T15:18:35.926Z,1017.42
2024-04-10T15:19:35.886Z,1017.43
2024-04-10T15:20:41.007Z,1017.42
2024-04-10T15:21:35.841Z,1017.46
2024-04-10T15:22:35.817Z,1017.46
2024-04-10T15:23:35.854Z,1017.50
2024-04-10T15:24:35.842Z,1017.46
2024-04-10T15:25:35.803Z,1017.40
2024-04-10T15:26:35.806Z,1017.49
2024-04-10T15:27:35.760Z,1017.39
2024-04-10T15:28:35.748Z,1017.51
2024-04-10T15:29:35.818Z,1017.48
2024-04-10T15:30:35.752Z,1017.47
2024-04-10T15:31:40.740Z,1017.50
2024-04-10T15:32:35.957Z,1017.56
2024-04-10T15:33:35.947Z,1017.54
2024-04-10T15:34:35.824Z,1017.58
2024-04-10T15:35:35.750Z,1017.56
2024-04-10T15:36:35.689Z,1017.59
2024-04-10T15:37:35.649Z,1017.60
2024-04-10T15:38:35.691Z,1017.55
2024-04-10T15:39:35.750Z,1017.53
2024-04-10T15:40:35.629Z,1017.56
2024-04-10T15:41:35.676Z,1017.58
2024-04-10T15:42:40.628Z,1017.62
2024-04-10T15:43:35.592Z,1017.55
2024-04-10T15:44:35.668Z,1017.53
2024-04-10T15:45:35.565Z,1017.51
2024-04-10T15:46:35.558Z,1017.52
2024-04-10T15:47:35.769Z,1017.54
2024-04-10T15:48:35.623Z,1017.58
2024-04-10T15:49:35.592Z,1017.55
2024-04-10T15:50:35.606Z,1017.55
2024-04-10T15:51:35.500Z,1017.64
2024-04-10T15:52:49.537Z,1017.56
2024-04-10T15:53:41.581Z,1017.54
2024-04-10T15:54:35.465Z,1017.60
2024-04-10T15:55:35.486Z,1017.55
2024-04-10T15:56:35.536Z,1017.54
2024-04-10T15:57:35.427Z,1017.56
2024-04-10T15:58:35.415Z,1017.50
2024-04-10T15:59:35.438Z,1017.56
2024-04-10T16:00:35.465Z,1017.58
2024-04-10T16:01:35.410Z,1017.57
2024-04-10T16:02:35.468Z,1017.61
2024-04-10T16:03:35.761Z,1017.63
2024-04-10T16:04:40.468Z,1017.66
2024-04-10T16:05:35.411Z,1017.66
2024-04-10T16:06:35.335Z,1017.65
2024-04-10T16:07:35.337Z,1017.68
2024-04-10T16:08:35.366Z,1017.66
2024-04-10T16:09:35.298Z,1017.60
2024-04-10T16:10:35.291Z,1017.69
2024-04-10T16:11:35.345Z,1017.66
2024-04-10T16:12:35.399Z,1017.70
2024-04-10T16:13:35.275Z,1017.67
2024-04-10T16:14:35.251Z,1017.68
2024-04-10T16:15:40.257Z,1017.67
2024-04-10T16:16:35.382Z,1017.72
2024-04-10T16:17:35.268Z,1017.72
2024-04-10T16:18:35.380Z,1017.73
2024-04-10T16:19:35.202Z,1017.75
2024-04-10T16:20:35.236Z,1017.65
2024-04-10T16:21:35.171Z,1017.73
2024-04-10T16:22:35.150Z,1017.72
2024-04-10T16:23:35.178Z,1017.73
2024-04-10T16:24:35.137Z,1017.72
2024-04-10T16:25:35.129Z,1017.66
2024-04-10T16:26:40.138Z,1017.64
2024-04-10T16:27:35.145Z,1017.65
2024-04-10T16:28:35.085Z,1017.63
2024-04-10T16:29:35.127Z,1017.65
2024-04-10T16:30:35.072Z,1017.64
2024-04-10T16:31:35.091Z,1017.64
2024-04-10T16:32:35.215Z,1017.61
2024-04-10T16:33:35.246Z,1017.63
2024-04-10T16:34:35.119Z,1017.62
2024-04-10T16:35:35.053Z,1017.61
2024-04-10T16:36:34.992Z,1017.66
2024-04-10T16:37:40.030Z,1017.65
2024-04-10T16:38:34.981Z,1017.67
2024-04-10T16:39:34.968Z,1017.68
2024-04-10T16:40:34.961Z,1017.67
2024-04-10T16:41:34.986Z,1017.67
2024-04-10T16:42:34.922Z,1017.70
2024-04-10T16:43:37.865Z,1017.70
2024-04-10T16:44:34.949Z,1017.76
2024-04-10T16:45:34.908Z,1017.69
2024-04-10T16:46:34.905Z,1017.78
2024-04-10T16:47:34.919Z,1017.84
2024-04-10T16:48:40.072Z,1017.82
2024-04-10T16:49:34.853Z,1017.79
2024-04-10T16:50:34.867Z,1017.78
2024-04-10T16:51:34.837Z,1017.82
2024-04-10T16:52:34.811Z,1017.79
2024-04-10T16:53:34.832Z,1017.78
2024-04-10T16:54:34.785Z,1017.78
2024-04-10T16:55:34.774Z,1017.74
2024-04-10T16:56:34.964Z,1017.83
2024-04-10T16:57:34.767Z,1017.83
2024-04-10T16:58:34.752Z,1017.79
2024-04-10T16:59:39.776Z,1017.83
2024-04-10T17:00:34.730Z,1017.80
2024-04-10T17:01:34.796Z,1017.80
2024-04-10T17:02:34.843Z,1017.84
2024-04-10T17:03:34.744Z,1017.88
2024-04-10T17:04:34.776Z,1017.86
2024-04-10T17:05:34.732Z,1017.82
2024-04-10T17:06:34.659Z,1017.88